Randlett, Oklahoma
Current Conditions -  °F | °C
As of 8:52 PM on Friday 21 Nov 2014 (Local Time) from KSPS Reporting Station
Broken Clouds Broken Clouds  
Wind Chill: 54°   Ceiling: 2400
Heat Index: 54°   Visibility: 10mi
Dew Point: 49°   Wind: 5mph
Humidity: 83%   Direction: 110°ESE
Pressure: 30.02"   Gusts: NA
Location:  34.18°N, 98.46°W
Report Text: KSPS 220252Z 11004KT 10SM BKN024 12/09 A3002 RMK AO2 SLP161 T01220094 50008
Loading
Personal Weather Stations






























Interactive Weather Map New forecast layout! Learn more

10-Day Weather Forecast

Advertisements
Track Severe Weather on mobile